createdAt,value
2018-02-07T00:01:13.183Z,0.50
2018-02-07T00:03:40.687Z,0.50
2018-02-07T00:06:08.949Z,0.20
2018-02-07T00:08:36.476Z,0.30
2018-02-07T00:11:04.734Z,0.50
2018-02-07T00:13:32.249Z,0.50
2018-02-07T00:15:59.756Z,0.60
2018-02-07T00:18:28.076Z,0.40
2018-02-07T00:20:55.595Z,0.40
2018-02-07T00:23:23.853Z,0.50
2018-02-07T00:25:51.374Z,0.50
2018-02-07T00:28:18.866Z,0.70
2018-02-07T00:30:46.376Z,0.70
2018-02-07T00:33:13.898Z,0.40
2018-02-07T00:35:42.162Z,0.30
2018-02-07T00:38:09.680Z,0.30
2018-02-07T00:40:37.193Z,0.00
2018-02-07T00:43:05.466Z,-0.30
2018-02-07T00:45:33.760Z,-0.30
2018-02-07T00:48:01.281Z,-0.30
2018-02-07T00:50:29.581Z,0.00
2018-02-07T00:52:57.864Z,0.00
2018-02-07T00:55:26.225Z,0.10
2018-02-07T00:57:53.757Z,0.00
2018-02-07T01:00:21.250Z,0.10
2018-02-07T01:02:49.525Z,0.00
2018-02-07T01:05:17.797Z,0.00
2018-02-07T01:07:45.315Z,0.00
2018-02-07T01:10:12.828Z,0.10
2018-02-07T01:12:41.100Z,0.20
2018-02-07T01:15:09.401Z,0.10
2018-02-07T01:17:36.914Z,0.10
2018-02-07T01:20:04.438Z,0.30
2018-02-07T01:22:31.952Z,0.40
2018-02-07T01:25:00.219Z,0.50
2018-02-07T01:27:28.513Z,0.60
2018-02-07T01:29:56.027Z,0.60
2018-02-07T01:32:23.546Z,0.60
2018-02-07T01:34:51.039Z,0.70
2018-02-07T01:37:18.560Z,0.60
2018-02-07T01:39:46.069Z,0.60
2018-02-07T01:42:13.575Z,0.60
2018-02-07T01:44:41.090Z,0.70
2018-02-07T01:47:08.600Z,0.70
2018-02-07T01:49:36.107Z,0.70
2018-02-07T01:52:03.632Z,0.60
2018-02-07T01:54:31.149Z,0.70
2018-02-07T01:56:59.456Z,0.60
2018-02-07T01:59:26.949Z,0.60
2018-02-07T02:01:54.466Z,0.70
2018-02-07T02:04:21.977Z,0.70
2018-02-07T02:06:49.492Z,0.30
2018-02-07T02:09:17.010Z,0.60
2018-02-07T02:11:45.277Z,0.50
2018-02-07T02:14:13.549Z,0.60
2018-02-07T02:16:41.075Z,0.60
2018-02-07T02:19:08.565Z,0.50
2018-02-07T02:21:36.083Z,0.50
2018-02-07T02:24:03.582Z,0.60
2018-02-07T02:26:31.079Z,0.70
2018-02-07T02:28:58.594Z,0.70
2018-02-07T02:31:26.112Z,0.70
2018-02-07T02:33:53.634Z,0.70
2018-02-07T02:36:33.741Z,0.60
2018-02-07T02:39:01.259Z,0.70
2018-02-07T02:41:28.768Z,0.60
2018-02-07T02:43:56.258Z,0.60
2018-02-07T02:46:24.558Z,0.80
2018-02-07T02:48:52.075Z,0.80
2018-02-07T02:51:19.613Z,0.70
2018-02-07T02:53:47.123Z,0.70
2018-02-07T02:56:14.641Z,0.50
2018-02-07T02:58:42.163Z,0.30
2018-02-07T03:01:09.663Z,0.50
2018-02-07T03:03:37.186Z,0.50
2018-02-07T03:06:04.701Z,0.60
2018-02-07T03:08:32.957Z,0.70
2018-02-07T03:11:00.511Z,0.60
2018-02-07T03:13:28.015Z,0.70
2018-02-07T03:15:55.542Z,0.70
2018-02-07T03:18:23.820Z,0.60
2018-02-07T03:20:52.223Z,0.20
2018-02-07T03:23:19.747Z,0.20
2018-02-07T03:25:47.265Z,0.00
2018-02-07T03:28:14.786Z,0.20
2018-02-07T03:30:42.309Z,0.00
2018-02-07T03:33:09.818Z,-0.10
2018-02-07T03:35:37.353Z,0.10
2018-02-07T03:38:05.622Z,0.30
2018-02-07T03:40:33.929Z,0.00
2018-02-07T03:43:01.440Z,0.00
2018-02-07T03:45:28.943Z,-0.20
2018-02-07T03:47:56.458Z,-0.30
2018-02-07T03:50:23.967Z,-0.40
2018-02-07T03:52:51.496Z,-0.40
2018-02-07T03:55:19.757Z,-0.50
2018-02-07T03:57:47.321Z,-0.50
2018-02-07T04:00:14.820Z,-0.40
2018-02-07T04:02:42.332Z,-0.40
2018-02-07T04:05:09.881Z,-0.30
2018-02-07T04:07:37.386Z,-0.40
2018-02-07T04:10:04.890Z,-0.40
2018-02-07T04:12:32.407Z,-0.30
2018-02-07T04:14:59.911Z,-0.20
2018-02-07T04:17:28.240Z,-0.20
2018-02-07T04:19:55.756Z,-0.20
2018-02-07T04:22:23.277Z,-0.30
2018-02-07T04:24:50.807Z,-0.30
2018-02-07T04:27:18.301Z,-0.50
2018-02-07T04:29:45.836Z,-0.30
2018-02-07T04:32:13.333Z,-0.30
2018-02-07T04:34:40.848Z,-0.30
2018-02-07T04:37:08.362Z,-0.10
2018-02-07T04:39:35.877Z,0.00
2018-02-07T04:42:03.415Z,0.00
2018-02-07T04:44:30.927Z,-0.20
2018-02-07T04:46:58.444Z,-0.20
2018-02-07T04:49:25.975Z,-0.40
2018-02-07T04:51:54.233Z,-0.30
2018-02-07T04:54:21.785Z,-0.40
2018-02-07T04:56:49.296Z,-0.40
2018-02-07T04:59:16.809Z,-0.40
2018-02-07T05:01:44.318Z,-0.40
2018-02-07T05:04:11.836Z,-0.20
2018-02-07T05:06:40.135Z,0.00
2018-02-07T05:09:08.474Z,0.00
2018-02-07T05:11:35.988Z,-0.30
2018-02-07T05:14:03.519Z,-0.30
2018-02-07T05:16:31.792Z,-0.20
2018-02-07T05:19:00.112Z,-0.20
2018-02-07T05:21:27.598Z,-0.20
2018-02-07T05:23:55.093Z,-0.10
2018-02-07T05:26:22.601Z,0.00
2018-02-07T05:28:50.099Z,0.10
2018-02-07T05:31:18.389Z,-0.10
2018-02-07T05:33:45.903Z,-0.10
2018-02-07T05:36:13.401Z,-0.20
2018-02-07T05:38:40.918Z,-0.40
2018-02-07T05:41:08.409Z,-0.30
2018-02-07T05:43:36.699Z,-0.20
2018-02-07T05:46:04.202Z,-0.20
2018-02-07T05:48:31.698Z,0.00
2018-02-07T05:50:59.992Z,0.00
2018-02-07T05:53:27.500Z,0.00
2018-02-07T05:55:55.018Z,0.00
2018-02-07T05:58:22.528Z,0.20
2018-02-07T06:00:50.037Z,0.20
2018-02-07T06:03:17.578Z,0.10
2018-02-07T06:05:45.083Z,-0.20
2018-02-07T06:08:13.388Z,0.10
2018-02-07T06:10:40.887Z,0.00
2018-02-07T06:13:08.390Z,0.20
2018-02-07T06:15:35.917Z,0.20
2018-02-07T06:18:03.415Z,0.30
2018-02-07T06:20:30.960Z,0.20
2018-02-07T06:22:58.481Z,0.40
2018-02-07T06:25:25.986Z,0.40
2018-02-07T06:27:53.516Z,0.40
2018-02-07T06:30:21.037Z,0.30
2018-02-07T06:32:48.562Z,0.40
2018-02-07T06:35:16.063Z,0.60
2018-02-07T06:37:43.571Z,0.40
2018-02-07T06:40:11.097Z,0.40
2018-02-07T06:42:38.590Z,0.40
2018-02-07T06:45:06.117Z,0.50
2018-02-07T06:47:33.610Z,0.50
2018-02-07T06:50:01.107Z,0.30
2018-02-07T06:52:28.674Z,0.50
2018-02-07T06:54:56.910Z,0.40
2018-02-07T06:57:24.431Z,0.40
2018-02-07T06:59:51.931Z,0.50
2018-02-07T07:02:20.212Z,0.60
2018-02-07T07:04:48.510Z,0.50
2018-02-07T07:07:16.001Z,0.50
2018-02-07T07:09:43.532Z,0.60
2018-02-07T07:12:11.040Z,0.60
2018-02-07T07:14:38.548Z,0.30
2018-02-07T07:17:06.066Z,0.00
2018-02-07T07:19:33.575Z,-0.30
2018-02-07T07:22:01.120Z,-0.30
2018-02-07T07:24:28.622Z,-0.40
2018-02-07T07:26:56.146Z,-0.40
2018-02-07T07:29:23.680Z,-0.50
2018-02-07T07:31:51.946Z,-0.40
2018-02-07T07:34:20.245Z,-0.50
2018-02-07T07:36:47.750Z,-0.50
2018-02-07T07:39:15.273Z,-0.50
2018-02-07T07:41:47.385Z,-0.50
2018-02-07T07:44:17.949Z,-0.40
2018-02-07T07:46:46.708Z,-0.40
2018-02-07T07:49:29.944Z,-0.10
2018-02-07T07:51:59.813Z,0.20
2018-02-07T07:54:27.510Z,0.20
2018-02-07T07:56:55.044Z,0.10
2018-02-07T07:59:27.705Z,0.00
2018-02-07T08:01:56.092Z,0.10
2018-02-07T08:04:23.654Z,0.30
2018-02-07T08:06:51.209Z,0.20
2018-02-07T08:09:18.711Z,0.20
2018-02-07T08:11:47.001Z,0.40
2018-02-07T08:14:15.302Z,0.30
2018-02-07T08:16:42.826Z,0.30
2018-02-07T08:19:11.095Z,0.50
2018-02-07T08:21:38.649Z,0.50
2018-02-07T08:24:06.173Z,0.60
2018-02-07T08:26:33.688Z,0.30
2018-02-07T08:29:02.015Z,0.40
2018-02-07T08:31:29.532Z,0.40
2018-02-07T08:33:57.030Z,0.60
2018-02-07T08:36:25.342Z,0.80
2018-02-07T08:38:52.840Z,0.80
2018-02-07T08:41:20.349Z,0.70
2018-02-07T08:43:47.901Z,0.30
2018-02-07T08:46:15.431Z,0.30
2018-02-07T08:48:42.989Z,0.40
2018-02-07T08:51:11.394Z,0.30
2018-02-07T08:53:39.812Z,0.40
2018-02-07T08:56:07.343Z,0.40
2018-02-07T08:58:34.889Z,0.60
2018-02-07T09:01:04.073Z,0.60
2018-02-07T09:03:31.587Z,0.40
2018-02-07T09:06:00.470Z,0.50
2018-02-07T09:08:28.744Z,0.40
2018-02-07T09:10:57.061Z,0.50
2018-02-07T09:13:24.586Z,0.50
2018-02-07T09:15:52.107Z,0.30
2018-02-07T09:18:19.636Z,0.30
2018-02-07T09:20:47.146Z,0.10
2018-02-07T09:23:15.455Z,-0.10
2018-02-07T09:25:43.089Z,-0.10
2018-02-07T09:28:10.639Z,0.00
2018-02-07T09:30:38.171Z,-0.20
2018-02-07T09:33:06.987Z,-0.30
2018-02-07T09:35:38.130Z,-0.20
2018-02-07T09:38:06.442Z,-0.10
2018-02-07T09:40:33.955Z,-0.10
2018-02-07T09:43:01.486Z,0.10
2018-02-07T09:45:28.986Z,0.20
2018-02-07T09:47:57.283Z,0.30
2018-02-07T09:50:24.869Z,0.30
2018-02-07T09:52:53.547Z,0.40
2018-02-07T10:15:20.076Z,0.20
2018-02-07T10:20:31.163Z,0.40
2018-02-07T10:22:58.943Z,0.60
2018-02-07T10:25:37.539Z,0.50
2018-02-07T10:28:07.699Z,0.50
2018-02-07T10:30:45.074Z,0.40
2018-02-07T10:38:50.839Z,0.60
2018-02-07T10:41:27.281Z,0.70
2018-02-07T10:44:00.405Z,0.80
2018-02-07T10:46:31.676Z,1.10
2018-02-07T10:49:00.048Z,1.70
2018-02-07T10:51:27.672Z,1.70
2018-02-07T10:53:55.289Z,1.80
2018-02-07T10:56:22.796Z,1.80
2018-02-07T10:58:50.322Z,2.30
2018-02-07T11:01:17.843Z,2.40
2018-02-07T11:03:46.105Z,2.60
2018-02-07T11:06:17.207Z,2.70
2018-02-07T11:08:53.657Z,2.70
2018-02-07T11:11:24.907Z,2.80
2018-02-07T11:14:06.246Z,2.60
2018-02-07T11:16:46.207Z,2.80
2018-02-07T11:19:40.504Z,3.10
2018-02-07T11:22:12.221Z,3.10
2018-02-07T11:24:40.602Z,3.20
2018-02-07T11:27:09.908Z,3.10
2018-02-07T11:29:44.537Z,3.10
2018-02-07T11:32:24.061Z,3.40
2018-02-07T11:34:57.800Z,3.50
2018-02-07T11:37:28.174Z,3.60
2018-02-07T11:39:57.632Z,3.60
2018-02-07T11:42:25.366Z,3.10
2018-02-07T11:44:56.512Z,2.50
2018-02-07T11:47:25.991Z,2.10
2018-02-07T11:50:00.913Z,2.10
2018-02-07T11:52:40.323Z,2.00
2018-02-07T11:55:08.437Z,2.00
2018-02-07T11:57:38.407Z,2.10
2018-02-07T12:00:11.130Z,2.30
2018-02-07T12:02:40.825Z,2.10
2018-02-07T12:05:09.864Z,2.20
2018-02-07T12:07:37.448Z,2.10
2018-02-07T12:10:04.964Z,1.90
2018-02-07T12:12:32.505Z,2.00
2018-02-07T12:15:00.789Z,2.20
2018-02-07T12:17:28.304Z,2.20
2018-02-07T12:19:55.818Z,2.40
2018-02-07T12:22:23.314Z,2.70
2018-02-07T12:24:50.850Z,2.80
2018-02-07T12:27:19.161Z,2.90
2018-02-07T12:29:46.657Z,3.00
2018-02-07T12:32:14.184Z,2.80
2018-02-07T12:34:41.677Z,3.00
2018-02-07T12:37:11.066Z,2.90
2018-02-07T12:39:38.763Z,3.00
2018-02-07T12:42:09.010Z,2.70
2018-02-07T12:44:37.679Z,2.70
2018-02-07T12:47:06.447Z,2.70
2018-02-07T12:49:34.243Z,2.90
2018-02-07T12:52:02.037Z,2.60
2018-02-07T12:54:29.765Z,2.50
2018-02-07T12:56:58.201Z,2.70
2018-02-07T12:59:26.625Z,2.70
2018-02-07T13:01:55.434Z,3.00
2018-02-07T13:04:23.129Z,3.10
2018-02-07T13:06:50.797Z,3.00
2018-02-07T13:09:18.295Z,3.00
2018-02-07T13:11:46.577Z,3.00
2018-02-07T13:14:14.106Z,3.00
2018-02-07T13:16:41.634Z,3.00
2018-02-07T13:19:09.180Z,2.80
2018-02-07T13:21:36.697Z,2.80
2018-02-07T13:24:04.963Z,2.90
2018-02-07T13:26:32.492Z,2.90
2018-02-07T13:28:59.994Z,2.90
2018-02-07T13:31:28.322Z,2.60
2018-02-07T13:33:55.811Z,2.60
2018-02-07T13:36:23.384Z,2.50
2018-02-07T13:38:50.881Z,2.60
2018-02-07T13:41:18.391Z,2.80
2018-02-07T13:43:46.684Z,2.60
2018-02-07T13:46:14.961Z,2.70
2018-02-07T13:48:42.487Z,2.70
2018-02-07T13:51:10.003Z,2.60
2018-02-07T13:53:37.511Z,2.70
2018-02-07T13:56:05.030Z,2.70
2018-02-07T13:58:32.544Z,2.90
2018-02-07T14:01:00.838Z,2.70
2018-02-07T14:03:28.364Z,2.70
2018-02-07T14:05:55.880Z,2.60
2018-02-07T14:08:23.428Z,2.60
2018-02-07T14:10:50.922Z,2.70
2018-02-07T14:13:18.453Z,2.80
2018-02-07T14:15:45.969Z,2.60
2018-02-07T14:18:14.283Z,2.60
2018-02-07T14:20:41.778Z,2.60
2018-02-07T14:23:09.270Z,2.50
2018-02-07T14:25:37.560Z,2.40
2018-02-07T14:28:05.080Z,2.40
2018-02-07T14:30:32.603Z,2.50
2018-02-07T14:33:00.108Z,2.50
2018-02-07T14:35:28.417Z,2.50
2018-02-07T14:37:55.914Z,2.50
2018-02-07T14:40:23.406Z,2.30
2018-02-07T14:42:51.686Z,2.30
2018-02-07T14:45:19.965Z,2.30
2018-02-07T14:47:48.241Z,2.40
2018-02-07T14:50:16.505Z,2.40
2018-02-07T14:52:44.804Z,2.20
2018-02-07T14:55:12.311Z,2.10
2018-02-07T14:57:39.824Z,2.00
2018-02-07T15:00:07.337Z,2.10
2018-02-07T15:02:34.829Z,2.10
2018-02-07T15:05:03.161Z,2.10
2018-02-07T15:07:30.660Z,2.10
2018-02-07T15:09:58.942Z,1.90
2018-02-07T15:12:26.438Z,1.90
2018-02-07T15:14:54.712Z,1.80
2018-02-07T15:17:22.235Z,1.80
2018-02-07T15:19:49.734Z,1.70
2018-02-07T15:22:17.289Z,1.80
2018-02-07T15:24:44.786Z,1.70
2018-02-07T15:27:12.286Z,1.70
2018-02-07T15:29:39.802Z,1.70
2018-02-07T15:32:07.316Z,1.70
2018-02-07T15:34:34.830Z,1.60
2018-02-07T15:37:03.104Z,1.40
2018-02-07T15:39:31.375Z,1.40
2018-02-07T15:41:59.655Z,1.40
2018-02-07T15:44:27.931Z,1.40
2018-02-07T15:46:56.220Z,1.20
2018-02-07T15:49:23.715Z,1.20
2018-02-07T15:51:51.224Z,1.20
2018-02-07T15:54:19.506Z,1.20
2018-02-07T15:56:47.809Z,1.10
2018-02-07T15:59:15.319Z,1.10
2018-02-07T16:01:42.828Z,1.20
2018-02-07T16:04:10.341Z,1.10
2018-02-07T16:06:37.854Z,1.00
2018-02-07T16:09:05.353Z,1.10
2018-02-07T16:11:32.869Z,1.00
2018-02-07T16:14:00.380Z,0.90
2018-02-07T16:16:28.656Z,1.20
2018-02-07T16:18:56.943Z,1.20
2018-02-07T16:21:25.201Z,1.00
2018-02-07T16:23:52.736Z,1.00
2018-02-07T16:26:20.225Z,1.00
2018-02-07T16:28:48.513Z,0.90
2018-02-07T16:31:16.807Z,0.90
2018-02-07T16:33:44.316Z,0.90
2018-02-07T16:36:11.834Z,1.00
2018-02-07T16:38:39.339Z,0.80
2018-02-07T16:41:06.834Z,0.80
2018-02-07T16:43:34.372Z,0.70
2018-02-07T16:46:02.640Z,0.80
2018-02-07T16:48:30.937Z,0.90
2018-02-07T16:50:58.442Z,0.80
2018-02-07T16:53:25.967Z,0.80
2018-02-07T16:55:53.477Z,0.90
2018-02-07T16:58:21.003Z,0.90
2018-02-07T17:00:48.494Z,0.70
2018-02-07T17:03:15.999Z,0.70
2018-02-07T17:05:43.519Z,0.50
2018-02-07T17:08:11.032Z,0.30
2018-02-07T17:10:38.568Z,0.20
2018-02-07T17:13:06.076Z,0.30
2018-02-07T17:15:33.571Z,0.40
2018-02-07T17:18:01.869Z,0.60
2018-02-07T17:20:29.361Z,0.50
2018-02-07T17:22:56.882Z,0.30
2018-02-07T17:25:25.191Z,0.20
2018-02-07T17:27:52.692Z,0.30
2018-02-07T17:30:20.966Z,0.20
2018-02-07T17:32:49.222Z,0.30
2018-02-07T17:35:16.744Z,0.30
2018-02-07T17:37:44.242Z,0.20
2018-02-07T17:40:11.775Z,0.20
2018-02-07T17:42:39.284Z,0.10
2018-02-07T17:45:07.554Z,-0.20
2018-02-07T17:47:35.848Z,-0.20
2018-02-07T17:50:03.351Z,-0.20
2018-02-07T17:52:30.901Z,-0.20
2018-02-07T17:54:58.412Z,-0.30
2018-02-07T17:57:26.682Z,-0.50
2018-02-07T17:59:54.975Z,-0.30
2018-02-07T18:02:22.524Z,-0.40
2018-02-07T18:04:50.798Z,-0.10
2018-02-07T18:07:19.066Z,0.00
2018-02-07T18:09:47.349Z,0.10
2018-02-07T18:12:15.645Z,0.10
2018-02-07T18:14:43.164Z,0.10
2018-02-07T18:17:10.701Z,0.00
2018-02-07T18:19:38.225Z,-0.10
2018-02-07T18:22:05.764Z,-0.40
2018-02-07T18:24:34.040Z,-0.20
2018-02-07T18:27:02.311Z,-0.30
2018-02-07T18:29:30.627Z,-0.30
2018-02-07T18:31:58.153Z,-0.30
2018-02-07T18:34:25.694Z,-0.40
2018-02-07T18:36:53.963Z,-0.10
2018-02-07T18:39:22.253Z,-0.20
2018-02-07T18:41:50.540Z,-0.30
2018-02-07T18:44:18.051Z,-0.30
2018-02-07T18:46:45.601Z,-0.40
2018-02-07T18:49:13.103Z,-0.60
2018-02-07T18:51:41.389Z,-0.70
2018-02-07T18:54:09.674Z,-0.50
2018-02-07T18:56:37.192Z,-0.50
2018-02-07T18:59:04.722Z,-0.70
2018-02-07T19:01:32.227Z,-0.60
2018-02-07T19:04:00.513Z,-0.90
2018-02-07T19:06:28.818Z,-0.80
2018-02-07T19:08:56.336Z,-0.80
2018-02-07T19:11:24.629Z,-0.90
2018-02-07T19:13:52.941Z,-1.00
2018-02-07T19:16:21.719Z,-1.00
2018-02-07T19:18:49.307Z,-1.10
2018-02-07T19:21:16.834Z,-1.30
2018-02-07T19:23:44.370Z,-1.30
2018-02-07T19:26:12.642Z,-1.20
2018-02-07T19:28:40.965Z,-1.10
2018-02-07T19:31:08.482Z,-1.10
2018-02-07T19:33:36.044Z,-1.00
2018-02-07T19:36:04.844Z,-0.90
2018-02-07T19:38:32.381Z,-0.90
2018-02-07T19:41:00.667Z,-0.90
2018-02-07T19:43:28.182Z,-0.90
2018-02-07T19:45:55.715Z,-0.80
2018-02-07T19:48:23.226Z,-0.80
2018-02-07T19:50:51.506Z,-1.10
2018-02-07T19:53:19.810Z,-1.30
2018-02-07T19:55:47.352Z,-1.30
2018-02-07T19:58:14.897Z,-1.20
2018-02-07T20:00:42.445Z,-0.90
2018-02-07T20:03:09.970Z,-0.80
2018-02-07T20:05:37.537Z,-0.80
2018-02-07T20:08:05.103Z,-0.60
2018-02-07T20:10:32.641Z,-0.70
2018-02-07T20:13:00.164Z,-0.70
2018-02-07T20:15:28.429Z,-1.10
2018-02-07T20:17:56.746Z,-0.90
2018-02-07T20:20:24.312Z,-0.90
2018-02-07T20:22:51.843Z,-0.90
2018-02-07T20:25:19.376Z,-0.80
2018-02-07T20:27:47.704Z,-0.80
2018-02-07T20:30:15.265Z,-0.80
2018-02-07T20:32:44.298Z,-0.90
2018-02-07T20:35:12.262Z,-0.90
2018-02-07T20:37:42.851Z,-1.10
2018-02-07T20:40:10.401Z,-1.20
2018-02-07T20:42:37.920Z,-1.50
2018-02-07T20:45:06.249Z,-1.30
2018-02-07T20:47:33.772Z,-1.30
2018-02-07T20:50:03.066Z,0.30
2018-02-07T20:52:31.352Z,-1.20
2018-02-07T20:54:58.880Z,-1.20
2018-02-07T20:57:26.436Z,-1.20
2018-02-07T20:59:53.971Z,-1.20
2018-02-07T21:02:21.498Z,-1.30
2018-02-07T21:04:48.997Z,-1.40
2018-02-07T21:07:16.545Z,-1.70
2018-02-07T21:09:44.107Z,-1.60
2018-02-07T21:12:11.625Z,-1.60
2018-02-07T21:14:39.203Z,-1.60
2018-02-07T21:17:06.702Z,-1.60
2018-02-07T21:19:34.987Z,-1.70
2018-02-07T21:22:02.512Z,-2.00
2018-02-07T21:24:30.034Z,-1.90
2018-02-07T21:26:57.612Z,-1.60
2018-02-07T21:29:25.094Z,-1.40
2018-02-07T21:31:52.623Z,-1.50
2018-02-07T21:34:20.127Z,-1.70
2018-02-07T21:36:47.640Z,-1.70
2018-02-07T21:39:15.156Z,-1.60
2018-02-07T21:41:42.655Z,-1.70
2018-02-07T21:44:10.192Z,-1.60
2018-02-07T21:46:38.463Z,-1.80
2018-02-07T21:49:06.740Z,-1.80
2018-02-07T21:51:35.018Z,-1.90
2018-02-07T21:54:03.294Z,-2.00
2018-02-07T21:56:31.581Z,-1.90
2018-02-07T21:58:59.093Z,-1.90
2018-02-07T22:01:26.593Z,-2.00
2018-02-07T22:03:54.874Z,-1.80
2018-02-07T22:06:22.384Z,-1.90
2018-02-07T22:08:49.950Z,-2.10
2018-02-07T22:11:18.958Z,-2.10
2018-02-07T22:13:46.496Z,-2.20
2018-02-07T22:16:14.781Z,-2.50
2018-02-07T22:18:42.291Z,-2.50
2018-02-07T22:21:09.819Z,-2.20
2018-02-07T22:26:12.166Z,-2.10
2018-02-07T22:28:40.444Z,-2.10
2018-02-07T22:31:07.964Z,-2.10
2018-02-07T22:33:35.483Z,-2.30
2018-02-07T22:36:02.988Z,-2.00
2018-02-07T22:38:30.528Z,-2.30
2018-02-07T22:40:58.807Z,-2.80
2018-02-07T22:43:27.093Z,-2.90
2018-02-07T22:45:54.604Z,-3.00
2018-02-07T22:48:22.104Z,-3.00
2018-02-07T22:50:49.641Z,-2.90
2018-02-07T22:53:17.911Z,-3.00
2018-02-07T22:55:45.438Z,-3.00
2018-02-07T22:58:12.937Z,-3.10
2018-02-07T23:00:41.206Z,-3.30
2018-02-07T23:03:08.741Z,-3.30
2018-02-07T23:05:36.261Z,-3.20
2018-02-07T23:08:03.777Z,-3.00
2018-02-07T23:10:31.295Z,-3.00
2018-02-07T23:12:58.822Z,-3.10
2018-02-07T23:15:26.324Z,-3.20
2018-02-07T23:17:53.840Z,-3.40
2018-02-07T23:20:21.355Z,-3.50
2018-02-07T23:22:48.849Z,-3.50
2018-02-07T23:25:17.129Z,-3.60
2018-02-07T23:27:44.648Z,-3.60
2018-02-07T23:30:12.163Z,-3.40
2018-02-07T23:32:39.662Z,-3.20
2018-02-07T23:35:07.187Z,-3.30
2018-02-07T23:37:34.698Z,-3.30
2018-02-07T23:40:02.214Z,-3.40
2018-02-07T23:42:29.726Z,-3.50
2018-02-07T23:44:58.004Z,-3.70
2018-02-07T23:47:26.293Z,-3.70
2018-02-07T23:49:53.802Z,-3.80
2018-02-07T23:52:21.298Z,-3.70
2018-02-07T23:54:49.601Z,-3.60
2018-02-07T23:57:17.104Z,-3.60
2018-02-07T23:59:44.649Z,-3.60
